createdAt,value
2017-02-24T00:00:38.941Z,5.05
2017-02-24T00:01:38.922Z,5.12
2017-02-24T00:02:38.919Z,5.08
2017-02-24T00:03:38.897Z,5.15
2017-02-24T00:04:38.898Z,5.12
2017-02-24T00:05:38.878Z,5.21
2017-02-24T00:06:38.856Z,5.15
2017-02-24T00:07:38.847Z,5.16
2017-02-24T00:08:38.836Z,5.15
2017-02-24T00:09:38.837Z,5.12
2017-02-24T00:10:38.808Z,5.06
2017-02-24T00:11:38.793Z,5.06
2017-02-24T00:12:38.777Z,5.03
2017-02-24T00:13:38.764Z,4.95
2017-02-24T00:14:38.776Z,4.94
2017-02-24T00:15:38.752Z,4.95
2017-02-24T00:16:38.330Z,4.9
2017-02-24T00:17:38.322Z,4.92
2017-02-24T00:18:38.708Z,4.92
2017-02-24T00:19:38.686Z,4.9
2017-02-24T00:20:38.675Z,4.95
2017-02-24T00:21:38.285Z,4.94
2017-02-24T00:22:38.648Z,4.94
2017-02-24T00:23:38.657Z,4.97
2017-02-24T00:24:38.619Z,4.98
2017-02-24T00:25:38.608Z,5
2017-02-24T00:26:38.594Z,4.95
2017-02-24T00:27:38.589Z,5
2017-02-24T00:28:38.581Z,5.02
2017-02-24T00:29:38.553Z,5.06
2017-02-24T00:30:38.144Z,5.03
2017-02-24T00:31:38.539Z,5.1
2017-02-24T00:32:38.516Z,5.09
2017-02-24T00:33:38.499Z,5.12
2017-02-24T00:34:38.482Z,5.09
2017-02-24T00:35:38.479Z,5.05
2017-02-24T00:36:38.456Z,5.09
2017-02-24T00:37:38.452Z,5.15
2017-02-24T00:38:38.435Z,5.1
2017-02-24T00:39:38.020Z,5.05
2017-02-24T00:40:38.413Z,5.09
2017-02-24T00:41:38.394Z,5.09
2017-02-24T00:42:38.390Z,5.13
2017-02-24T00:43:38.369Z,5.15
2017-02-24T00:44:38.359Z,5.05
2017-02-24T00:45:38.351Z,5.05
2017-02-24T00:46:38.368Z,5.09
2017-02-24T00:47:38.310Z,5.05
2017-02-24T00:48:38.303Z,5
2017-02-24T00:49:38.288Z,4.95
2017-02-24T00:50:38.281Z,5.06
2017-02-24T00:51:38.270Z,5
2017-02-24T00:52:38.249Z,5.05
2017-02-24T00:53:38.239Z,4.94
2017-02-24T00:54:38.221Z,5.03
2017-02-24T00:55:38.206Z,5.02
2017-02-24T00:56:38.194Z,4.98
2017-02-24T00:57:38.178Z,4.98
2017-02-24T00:58:38.171Z,5.02
2017-02-24T00:59:38.151Z,4.91
2017-02-24T01:00:38.140Z,4.94
2017-02-24T01:01:38.131Z,4.94
2017-02-24T01:02:38.121Z,4.94
2017-02-24T01:03:38.101Z,4.92
2017-02-24T01:04:38.095Z,4.95
2017-02-24T01:05:38.088Z,4.75
2017-02-24T01:06:38.062Z,4.84
2017-02-24T01:07:38.048Z,4.74
2017-02-24T01:08:38.028Z,4.69
2017-02-24T01:09:38.036Z,4.66
2017-02-24T01:10:38.002Z,4.69
2017-02-24T01:11:37.996Z,4.69
2017-02-24T01:12:37.993Z,4.61
2017-02-24T01:13:37.973Z,4.65
2017-02-24T01:14:37.566Z,4.66
2017-02-24T01:15:37.950Z,4.71
2017-02-24T01:16:37.938Z,4.61
2017-02-24T01:17:37.924Z,4.68
2017-02-24T01:18:37.909Z,4.6
2017-02-24T01:19:37.888Z,4.64
2017-02-24T01:20:37.886Z,4.61
2017-02-24T01:21:37.882Z,4.53
2017-02-24T01:22:37.864Z,4.5
2017-02-24T01:23:37.850Z,4.51
2017-02-24T01:24:37.812Z,4.48
2017-02-24T01:25:37.809Z,4.51
2017-02-24T01:26:37.796Z,4.56
2017-02-24T01:27:37.781Z,4.51
2017-02-24T01:28:37.764Z,4.53
2017-02-24T01:29:37.752Z,4.5
2017-02-24T01:30:37.774Z,4.51
2017-02-24T01:31:37.725Z,4.5
2017-02-24T01:32:37.710Z,4.64
2017-02-24T01:33:37.701Z,4.57
2017-02-24T01:34:37.698Z,4.65
2017-02-24T01:35:37.287Z,4.65
2017-02-24T01:36:37.658Z,4.69
2017-02-24T01:37:37.641Z,4.76
2017-02-24T01:38:37.672Z,4.75
2017-02-24T01:39:37.619Z,4.78
2017-02-24T01:40:37.601Z,4.83
2017-02-24T01:41:37.591Z,4.79
2017-02-24T01:42:37.595Z,4.88
2017-02-24T01:43:37.563Z,4.83
2017-02-24T01:44:37.547Z,4.97
2017-02-24T01:45:37.146Z,4.95
2017-02-24T01:46:37.521Z,4.9
2017-02-24T01:47:37.510Z,4.98
2017-02-24T01:48:37.496Z,4.94
2017-02-24T01:49:37.478Z,4.92
2017-02-24T01:50:37.470Z,4.92
2017-02-24T01:51:37.457Z,4.92
2017-02-24T01:52:37.440Z,4.91
2017-02-24T01:53:37.423Z,4.87
2017-02-24T01:54:37.414Z,4.92
2017-02-24T01:55:37.398Z,4.91
2017-02-24T01:56:37.387Z,4.91
2017-02-24T01:57:37.387Z,4.92
2017-02-24T01:58:37.356Z,4.87
2017-02-24T01:59:37.341Z,4.94
2017-02-24T02:00:37.328Z,4.92
2017-02-24T02:01:37.320Z,4.83
2017-02-24T02:02:37.304Z,4.83
2017-02-24T02:03:37.297Z,4.85
2017-02-24T02:04:37.291Z,4.87
2017-02-24T02:05:37.261Z,4.71
2017-02-24T02:06:37.267Z,4.72
2017-02-24T02:07:37.250Z,4.76
2017-02-24T02:08:37.237Z,4.88
2017-02-24T02:09:37.207Z,4.79
2017-02-24T02:10:37.203Z,4.83
2017-02-24T02:11:37.181Z,4.85
2017-02-24T02:12:37.168Z,4.85
2017-02-24T02:13:37.154Z,4.76
2017-02-24T02:14:37.141Z,4.87
2017-02-24T02:15:37.124Z,4.75
2017-02-24T02:16:37.163Z,4.78
2017-02-24T02:17:37.097Z,4.66
2017-02-24T02:18:37.091Z,4.75
2017-02-24T02:19:37.088Z,4.61
2017-02-24T02:20:37.061Z,4.64
2017-02-24T02:21:37.065Z,4.5
2017-02-24T02:22:37.032Z,4.54
2017-02-24T02:23:37.027Z,4.57
2017-02-24T02:24:37.020Z,4.48
2017-02-24T02:25:37.002Z,4.51
2017-02-24T02:26:36.978Z,4.46
2017-02-24T02:27:36.964Z,4.48
2017-02-24T02:28:36.950Z,4.48
2017-02-24T02:29:36.945Z,4.46
2017-02-24T02:30:36.922Z,4.56
2017-02-24T02:31:36.912Z,4.47
2017-02-24T02:32:36.892Z,4.5
2017-02-24T02:33:36.880Z,4.51
2017-02-24T02:34:36.867Z,4.6
2017-02-24T02:35:36.857Z,4.58
2017-02-24T02:36:39.893Z,4.61
2017-02-24T02:37:38.019Z,4.6
2017-02-24T02:38:36.827Z,4.65
2017-02-24T02:39:36.806Z,4.58
2017-02-24T02:40:36.807Z,4.61
2017-02-24T02:41:36.773Z,4.6
2017-02-24T02:42:36.766Z,4.6
2017-02-24T02:43:36.750Z,4.58
2017-02-24T02:44:36.735Z,4.6
2017-02-24T02:45:36.734Z,4.64
2017-02-24T02:46:36.705Z,4.64
2017-02-24T02:47:36.695Z,4.58
2017-02-24T02:48:36.684Z,4.57
2017-02-24T02:49:36.673Z,4.65
2017-02-24T02:50:36.665Z,4.54
2017-02-24T02:51:36.641Z,4.56
2017-02-24T02:52:36.223Z,4.53
2017-02-24T02:53:36.610Z,4.48
2017-02-24T02:54:36.601Z,4.51
2017-02-24T02:55:36.580Z,4.44
2017-02-24T02:56:36.571Z,4.51
2017-02-24T02:57:36.566Z,4.53
2017-02-24T02:58:36.542Z,4.56
2017-02-24T02:59:36.527Z,4.57
2017-02-24T03:00:36.527Z,4.56
2017-02-24T03:01:36.104Z,4.5
2017-02-24T03:02:36.499Z,4.47
2017-02-24T03:03:36.092Z,4.4
2017-02-24T03:04:36.456Z,4.39
2017-02-24T03:05:36.463Z,4.47
2017-02-24T03:06:36.429Z,4.32
2017-02-24T03:07:36.418Z,4.39
2017-02-24T03:08:36.404Z,4.4
2017-02-24T03:09:36.388Z,4.46
2017-02-24T03:10:36.389Z,4.46
2017-02-24T03:11:36.377Z,4.46
2017-02-24T03:12:36.393Z,4.46
2017-02-24T03:13:36.748Z,4.47
2017-02-24T03:14:36.321Z,4.47
2017-02-24T03:15:36.313Z,4.44
2017-02-24T03:16:36.314Z,4.47
2017-02-24T03:17:36.273Z,4.46
2017-02-24T03:18:35.873Z,4.42
2017-02-24T03:19:36.314Z,4.48
2017-02-24T03:20:36.234Z,4.46
2017-02-24T03:21:36.234Z,4.48
2017-02-24T03:22:36.207Z,4.39
2017-02-24T03:23:36.206Z,4.53
2017-02-24T03:24:36.176Z,4.5
2017-02-24T03:25:36.162Z,4.47
2017-02-24T03:26:36.166Z,4.5
2017-02-24T03:27:36.134Z,4.53
2017-02-24T03:28:36.136Z,4.48
2017-02-24T03:29:36.110Z,4.51
2017-02-24T03:30:36.099Z,4.51
2017-02-24T03:31:36.086Z,4.42
2017-02-24T03:32:36.064Z,4.38
2017-02-24T03:33:36.072Z,4.33
2017-02-24T03:34:36.042Z,4.3
2017-02-24T03:35:36.023Z,4.32
2017-02-24T03:36:35.641Z,4.24
2017-02-24T03:37:36.006Z,4.2
2017-02-24T03:38:35.979Z,4.29
2017-02-24T03:39:35.989Z,4.3
2017-02-24T03:40:35.569Z,4.28
2017-02-24T03:41:35.557Z,4.24
2017-02-24T03:42:35.529Z,4.18
2017-02-24T03:43:35.920Z,4.2
2017-02-24T03:44:35.889Z,4.24
2017-02-24T03:45:35.903Z,4.2
2017-02-24T03:46:35.874Z,4.18
2017-02-24T03:47:35.852Z,4.2
2017-02-24T03:48:35.837Z,4.2
2017-02-24T03:49:35.437Z,4.12
2017-02-24T03:50:35.817Z,4.18
2017-02-24T03:51:35.796Z,4.21
2017-02-24T03:52:35.798Z,4.18
2017-02-24T03:53:35.770Z,4.12
2017-02-24T03:54:35.760Z,4.12
2017-02-24T03:55:35.739Z,4.04
2017-02-24T03:56:35.720Z,3.92
2017-02-24T03:57:35.712Z,3.92
2017-02-24T03:58:35.706Z,3.96
2017-02-24T03:59:35.683Z,3.99
2017-02-24T04:00:35.663Z,3.96
2017-02-24T04:01:35.657Z,3.89
2017-02-24T04:02:35.650Z,3.96
2017-02-24T04:03:35.247Z,3.93
2017-02-24T04:04:35.628Z,3.84
2017-02-24T04:05:35.611Z,3.84
2017-02-24T04:06:35.585Z,3.82
2017-02-24T04:07:35.568Z,3.79
2017-02-24T04:08:35.547Z,3.78
2017-02-24T04:09:35.547Z,3.85
2017-02-24T04:10:35.531Z,3.85
2017-02-24T04:11:35.505Z,3.78
2017-02-24T04:12:35.505Z,3.79
2017-02-24T04:13:35.484Z,3.74
2017-02-24T04:14:35.465Z,3.79
2017-02-24T04:15:35.470Z,3.72
2017-02-24T04:16:35.439Z,3.67
2017-02-24T04:17:35.429Z,3.71
2017-02-24T04:18:35.417Z,3.6
2017-02-24T04:19:35.397Z,3.6
2017-02-24T04:20:35.401Z,3.45
2017-02-24T04:21:35.371Z,3.56
2017-02-24T04:22:34.981Z,3.46
2017-02-24T04:23:35.336Z,3.56
2017-02-24T04:24:35.390Z,3.43
2017-02-24T04:25:35.304Z,3.45
2017-02-24T04:26:34.898Z,3.35
2017-02-24T04:27:35.276Z,3.3
2017-02-24T04:28:35.271Z,3.32
2017-02-24T04:29:35.257Z,3.2
2017-02-24T04:30:35.248Z,3.23
2017-02-24T04:31:35.215Z,3.19
2017-02-24T04:32:35.202Z,3.27
2017-02-24T04:33:35.190Z,3.2
2017-02-24T04:34:35.170Z,3.16
2017-02-24T04:35:35.156Z,3.21
2017-02-24T04:36:35.149Z,3.23
2017-02-24T04:37:35.128Z,3.27
2017-02-24T04:38:35.112Z,3.19
2017-02-24T04:39:35.100Z,3.24
2017-02-24T04:40:35.081Z,3.23
2017-02-24T04:41:35.110Z,3.2
2017-02-24T04:42:35.052Z,3.23
2017-02-24T04:43:35.059Z,3.19
2017-02-24T04:44:35.021Z,3.21
2017-02-24T04:45:35.010Z,3.19
2017-02-24T04:46:35.019Z,3.13
2017-02-24T04:47:34.987Z,3.17
2017-02-24T04:48:34.972Z,3.13
2017-02-24T04:49:34.958Z,3.03
2017-02-24T04:50:34.933Z,3.2
2017-02-24T04:51:34.922Z,3.09
2017-02-24T04:52:34.120Z,3.05
2017-02-24T04:53:34.894Z,3.06
2017-02-24T04:54:34.488Z,3.05
2017-02-24T04:55:34.857Z,3.08
2017-02-24T04:56:34.838Z,2.93
2017-02-24T04:57:34.831Z,3.06
2017-02-24T04:58:34.813Z,3.02
2017-02-24T04:59:34.803Z,2.91
2017-02-24T05:00:34.788Z,2.99
2017-02-24T05:01:34.777Z,2.93
2017-02-24T05:02:34.795Z,2.9
2017-02-24T05:03:34.742Z,2.83
2017-02-24T05:04:34.741Z,2.81
2017-02-24T05:05:34.705Z,2.88
2017-02-24T05:06:34.707Z,2.8
2017-02-24T05:07:34.673Z,2.84
2017-02-24T05:08:34.663Z,2.72
2017-02-24T05:09:34.644Z,2.72
2017-02-24T05:10:34.231Z,2.72
2017-02-24T05:11:34.631Z,2.7
2017-02-24T05:12:34.609Z,2.67
2017-02-24T05:13:34.596Z,2.83
2017-02-24T05:14:34.575Z,2.77
2017-02-24T05:15:34.554Z,2.77
2017-02-24T05:16:34.535Z,2.81
2017-02-24T05:17:34.535Z,2.78
2017-02-24T05:18:34.511Z,2.78
2017-02-24T05:19:34.496Z,2.72
2017-02-24T05:20:34.475Z,2.67
2017-02-24T05:21:34.469Z,2.76
2017-02-24T05:22:34.454Z,2.78
2017-02-24T05:23:34.055Z,2.76
2017-02-24T05:24:34.416Z,2.76
2017-02-24T05:25:34.404Z,2.8
2017-02-24T05:26:34.384Z,2.78
2017-02-24T05:27:33.982Z,2.8
2017-02-24T05:28:34.359Z,2.73
2017-02-24T05:29:34.338Z,2.7
2017-02-24T05:30:34.341Z,2.78
2017-02-24T05:31:34.339Z,2.85
2017-02-24T05:32:34.304Z,2.81
2017-02-24T05:33:34.282Z,2.8
2017-02-24T05:34:34.259Z,2.85
2017-02-24T05:35:34.250Z,2.83
2017-02-24T05:36:34.239Z,2.8
2017-02-24T05:37:34.217Z,2.84
2017-02-24T05:38:34.209Z,2.78
2017-02-24T05:39:34.183Z,2.77
2017-02-24T05:40:34.179Z,2.76
2017-02-24T05:41:34.156Z,2.78
2017-02-24T05:42:34.135Z,2.8
2017-02-24T05:43:34.122Z,2.73
2017-02-24T05:44:34.115Z,2.76
2017-02-24T05:45:34.099Z,2.73
2017-02-24T05:46:34.084Z,2.69
2017-02-24T05:47:34.100Z,2.65
2017-02-24T05:48:34.048Z,2.67
2017-02-24T05:49:34.047Z,2.6
2017-02-24T05:50:34.024Z,2.54
2017-02-24T05:51:33.998Z,2.58
2017-02-24T05:52:33.995Z,2.58
2017-02-24T05:53:33.968Z,2.52
2017-02-24T05:54:33.949Z,2.33
2017-02-24T05:55:33.952Z,2.34
2017-02-24T05:56:33.923Z,2.15
2017-02-24T05:57:33.912Z,2.13
2017-02-24T05:58:33.900Z,2.13
2017-02-24T05:59:33.876Z,2.08
2017-02-24T06:00:33.878Z,2.09
2017-02-24T06:01:33.846Z,1.94
2017-02-24T06:02:33.844Z,1.98
2017-02-24T06:03:33.825Z,1.94
2017-02-24T06:04:33.806Z,2.02
2017-02-24T06:05:33.789Z,1.97
2017-02-24T06:06:33.767Z,1.94
2017-02-24T06:07:33.764Z,2.01
2017-02-24T06:08:33.754Z,1.93
2017-02-24T06:09:33.732Z,1.98
2017-02-24T06:10:33.710Z,2.02
2017-02-24T06:11:33.704Z,2.08
2017-02-24T06:12:33.678Z,2.05
2017-02-24T06:13:33.662Z,2.06
2017-02-24T06:14:33.646Z,2.08
2017-02-24T06:15:33.635Z,2.13
2017-02-24T06:16:33.646Z,2.09
2017-02-24T06:17:33.607Z,2.11
2017-02-24T06:18:33.590Z,2.11
2017-02-24T06:19:33.178Z,2.08
2017-02-24T06:20:33.550Z,2.13
2017-02-24T06:21:33.563Z,2.06
2017-02-24T06:22:33.526Z,2.02
2017-02-24T06:23:33.520Z,2.06
2017-02-24T06:24:33.493Z,2.11
2017-02-24T06:25:33.479Z,2.08
2017-02-24T06:26:33.058Z,2.09
2017-02-24T06:27:33.447Z,2.08
2017-02-24T06:28:33.448Z,2.08
2017-02-24T06:29:33.432Z,2.09
2017-02-24T06:30:33.389Z,2.05
2017-02-24T06:31:33.395Z,2.05
2017-02-24T06:32:33.371Z,2.06
2017-02-24T06:33:33.351Z,1.98
2017-02-24T06:34:33.341Z,2.05
2017-02-24T06:35:33.345Z,2.12
2017-02-24T06:36:33.295Z,2.2
2017-02-24T06:37:32.887Z,2.09
2017-02-24T06:38:33.282Z,2.2
2017-02-24T06:39:33.252Z,2.09
2017-02-24T06:40:33.235Z,2.12
2017-02-24T06:41:32.825Z,2.15
2017-02-24T06:42:33.202Z,2.22
2017-02-24T06:43:33.198Z,2.23
2017-02-24T06:44:33.179Z,2.22
2017-02-24T06:45:33.158Z,2.2
2017-02-24T06:46:33.140Z,2.15
2017-02-24T06:47:33.127Z,2.2
2017-02-24T06:48:33.119Z,2.22
2017-02-24T06:49:33.107Z,2.15
2017-02-24T06:50:33.078Z,2.23
2017-02-24T06:51:33.066Z,2.2
2017-02-24T06:52:33.047Z,2.16
2017-02-24T06:53:33.039Z,2.13
2017-02-24T06:54:33.018Z,2.16
2017-02-24T06:55:32.997Z,2.16
2017-02-24T06:56:32.992Z,2.16
2017-02-24T06:57:32.966Z,2.18
2017-02-24T06:58:32.950Z,2.16
2017-02-24T06:59:32.558Z,2.22
2017-02-24T07:00:32.929Z,2.23
2017-02-24T07:01:32.907Z,2.27
2017-02-24T07:02:32.897Z,2.2
2017-02-24T07:03:32.885Z,2.26
2017-02-24T07:04:32.859Z,2.29
2017-02-24T07:05:32.860Z,2.33
2017-02-24T07:06:32.827Z,2.33
2017-02-24T07:07:32.821Z,2.27
2017-02-24T07:08:32.815Z,2.31
2017-02-24T07:09:32.797Z,2.34
2017-02-24T07:10:32.812Z,2.3
2017-02-24T07:11:32.750Z,2.27
2017-02-24T07:12:32.739Z,2.33
2017-02-24T07:13:32.744Z,2.26
2017-02-24T07:14:32.703Z,2.27
2017-02-24T07:15:32.687Z,2.3
2017-02-24T07:16:32.675Z,2.34
2017-02-24T07:17:32.668Z,2.31
2017-02-24T07:18:32.644Z,2.3
2017-02-24T07:19:32.634Z,2.36
2017-02-24T07:20:32.611Z,2.31
2017-02-24T07:21:32.595Z,2.33
2017-02-24T07:22:32.579Z,2.34
2017-02-24T07:23:32.562Z,2.34
2017-02-24T07:24:32.550Z,2.38
2017-02-24T07:25:32.540Z,2.38
2017-02-24T07:26:32.519Z,2.47
2017-02-24T07:27:32.500Z,2.42
2017-02-24T07:28:32.523Z,2.52
2017-02-24T07:29:32.470Z,2.51
2017-02-24T07:30:32.478Z,2.51
2017-02-24T07:31:32.041Z,2.55
2017-02-24T07:32:32.425Z,2.48
2017-02-24T07:33:32.419Z,2.52
2017-02-24T07:34:32.404Z,2.55
2017-02-24T07:35:32.386Z,2.51
2017-02-24T07:36:31.980Z,2.55
2017-02-24T07:37:32.358Z,2.55
2017-02-24T07:38:32.339Z,2.58
2017-02-24T07:39:32.319Z,2.66
2017-02-24T07:40:31.904Z,2.66
2017-02-24T07:41:32.300Z,2.69
2017-02-24T07:42:32.280Z,2.67
2017-02-24T07:43:32.256Z,2.73
2017-02-24T07:44:32.235Z,2.73
2017-02-24T07:45:31.835Z,2.83
2017-02-24T07:46:32.207Z,2.84
2017-02-24T07:47:32.208Z,2.81
2017-02-24T07:48:32.176Z,2.9
2017-02-24T07:49:32.158Z,2.77
2017-02-24T07:50:32.158Z,2.8
2017-02-24T07:51:32.145Z,2.77
2017-02-24T07:52:32.117Z,2.85
2017-02-24T07:53:32.108Z,2.95
2017-02-24T07:54:32.104Z,3.05
2017-02-24T07:55:32.069Z,3.19
2017-02-24T07:56:32.054Z,3.11
2017-02-24T07:57:32.060Z,3.2
2017-02-24T07:58:31.647Z,3.24
2017-02-24T07:59:32.010Z,3.23
2017-02-24T08:00:31.610Z,3.2
2017-02-24T08:01:31.591Z,3.27
2017-02-24T08:02:31.970Z,3.23
2017-02-24T08:03:31.952Z,3.13
2017-02-24T08:04:31.945Z,3.17
2017-02-24T08:05:31.944Z,3.16
2017-02-24T08:06:31.968Z,3.19
2017-02-24T08:07:31.908Z,3.13
2017-02-24T08:08:31.885Z,3.19
2017-02-24T08:09:31.861Z,3.23
2017-02-24T08:10:31.850Z,3.23
2017-02-24T08:11:31.831Z,3.24
2017-02-24T08:12:31.844Z,3.24
2017-02-24T08:13:31.804Z,3.19
2017-02-24T08:14:31.793Z,3.2
2017-02-24T08:15:31.798Z,3.24
2017-02-24T08:16:31.768Z,3.21
2017-02-24T08:17:31.772Z,3.14
2017-02-24T08:18:31.743Z,3.08
2017-02-24T08:19:31.721Z,3.05
2017-02-24T08:20:31.323Z,2.9
2017-02-24T08:21:31.695Z,3.01
2017-02-24T08:22:31.674Z,2.85
2017-02-24T08:23:31.255Z,2.78
2017-02-24T08:24:31.651Z,2.6
2017-02-24T08:25:31.624Z,2.3
2017-02-24T08:26:31.642Z,2.13
2017-02-24T08:27:31.599Z,2.13
2017-02-24T08:28:31.593Z,2.06
2017-02-24T08:29:31.567Z,1.82
2017-02-24T08:30:31.560Z,1.83
2017-02-24T08:31:31.534Z,1.86
2017-02-24T08:32:31.528Z,1.83
2017-02-24T08:33:31.511Z,1.9
2017-02-24T08:34:31.498Z,1.94
2017-02-24T08:35:31.470Z,1.98
2017-02-24T08:36:31.469Z,1.93
2017-02-24T08:37:31.043Z,1.94
2017-02-24T08:38:31.430Z,1.94
2017-02-24T08:39:31.013Z,1.87
2017-02-24T08:40:31.017Z,1.79
2017-02-24T08:41:31.385Z,1.9
2017-02-24T08:42:31.361Z,1.86
2017-02-24T08:43:31.350Z,1.86
2017-02-24T08:44:31.331Z,1.78
2017-02-24T08:45:31.320Z,1.84
2017-02-24T08:46:31.319Z,1.82
2017-02-24T08:47:31.281Z,1.71
2017-02-24T08:48:31.267Z,1.86
2017-02-24T08:49:31.249Z,1.89
2017-02-24T08:50:31.248Z,1.74
2017-02-24T08:51:31.244Z,1.72
2017-02-24T08:52:31.228Z,1.72
2017-02-24T08:53:31.194Z,1.71
2017-02-24T08:54:31.192Z,1.64
2017-02-24T08:55:31.158Z,1.58
2017-02-24T08:56:31.152Z,1.6
2017-02-24T08:57:31.135Z,1.66
2017-02-24T08:58:30.712Z,1.72
2017-02-24T08:59:31.108Z,1.9
2017-02-24T09:00:31.101Z,2.04
2017-02-24T09:01:30.332Z,2.11
2017-02-24T09:02:30.646Z,2.16
2017-02-24T09:03:30.643Z,2.27
2017-02-24T09:04:31.015Z,2.31
2017-02-24T09:05:31.009Z,2.45
2017-02-24T09:06:30.996Z,2.55
2017-02-24T09:07:30.974Z,2.62
2017-02-24T09:08:30.571Z,2.63
2017-02-24T09:09:30.956Z,2.73
2017-02-24T09:10:30.925Z,2.8
2017-02-24T09:11:30.921Z,2.78
2017-02-24T09:12:30.907Z,2.78
2017-02-24T09:13:30.477Z,2.83
2017-02-24T09:14:30.877Z,2.88
2017-02-24T09:15:30.857Z,2.81
2017-02-24T09:16:30.842Z,2.81
2017-02-24T09:17:30.818Z,2.81
2017-02-24T09:18:30.804Z,2.9
2017-02-24T09:19:30.786Z,2.9
2017-02-24T09:20:30.791Z,2.91
2017-02-24T09:21:30.770Z,2.91
2017-02-24T09:22:30.738Z,3.02
2017-02-24T09:23:30.747Z,2.96
2017-02-24T09:24:30.716Z,2.88
2017-02-24T09:25:30.301Z,2.78
2017-02-24T09:26:30.693Z,2.8
2017-02-24T09:27:30.669Z,2.72
2017-02-24T09:28:30.648Z,2.6
2017-02-24T09:29:30.667Z,2.59
2017-02-24T09:30:30.621Z,2.6
2017-02-24T09:31:30.208Z,2.63
2017-02-24T09:32:30.190Z,2.62
2017-02-24T09:33:30.203Z,2.67
2017-02-24T09:34:30.175Z,2.72
2017-02-24T09:35:30.551Z,2.73
2017-02-24T09:36:30.136Z,2.7
2017-02-24T09:37:30.525Z,2.72
2017-02-24T09:38:30.501Z,2.72
2017-02-24T09:39:30.485Z,2.65
2017-02-24T09:40:30.071Z,2.8
2017-02-24T09:41:30.457Z,2.63
2017-02-24T09:42:30.434Z,2.54
2017-02-24T09:43:30.032Z,2.6
2017-02-24T09:44:30.418Z,2.54
2017-02-24T09:45:30.405Z,2.58
2017-02-24T09:46:30.381Z,2.63
2017-02-24T09:47:30.361Z,2.51
2017-02-24T09:48:30.352Z,2.42
2017-02-24T09:49:30.343Z,2.48
2017-02-24T09:50:30.323Z,2.42
2017-02-24T09:51:30.299Z,2.48
2017-02-24T09:52:30.286Z,2.45
2017-02-24T09:53:29.891Z,2.47
2017-02-24T09:54:30.258Z,2.41
2017-02-24T09:55:30.245Z,2.58
2017-02-24T09:56:30.231Z,2.62
2017-02-24T09:57:30.218Z,2.55
2017-02-24T09:58:30.219Z,2.58
2017-02-24T09:59:30.181Z,2.58
2017-02-24T10:00:30.182Z,2.77
2017-02-24T10:01:30.149Z,2.98
2017-02-24T10:02:30.129Z,2.88
2017-02-24T10:03:30.113Z,2.93
2017-02-24T10:04:29.702Z,2.93
2017-02-24T10:05:30.082Z,3.02
2017-02-24T10:06:30.072Z,2.99
2017-02-24T10:07:30.055Z,2.96
2017-02-24T10:08:30.046Z,3.05
2017-02-24T10:09:30.043Z,2.91
2017-02-24T10:10:30.011Z,2.85
2017-02-24T10:11:29.996Z,2.95
2017-02-24T10:12:29.989Z,2.88
2017-02-24T10:13:29.963Z,2.87
2017-02-24T10:14:29.948Z,2.87
2017-02-24T10:15:29.931Z,2.98
2017-02-24T10:16:29.924Z,2.98
2017-02-24T10:17:29.907Z,3.03
2017-02-24T10:18:29.895Z,3.03
2017-02-24T10:19:29.872Z,2.98
2017-02-24T10:20:29.865Z,3.02
2017-02-24T10:21:29.844Z,3.02
2017-02-24T10:22:29.826Z,2.96
2017-02-24T10:23:29.422Z,2.91
2017-02-24T10:24:29.804Z,2.93
2017-02-24T10:25:29.780Z,3.09
2017-02-24T10:26:29.777Z,3.06
2017-02-24T10:27:29.766Z,3.06
2017-02-24T10:28:29.759Z,3.14
2017-02-24T10:29:29.721Z,3.16
2017-02-24T10:30:29.313Z,3.11
2017-02-24T10:31:29.296Z,3.08
2017-02-24T10:32:29.693Z,2.98
2017-02-24T10:33:29.678Z,2.95
2017-02-24T10:34:29.670Z,2.93
2017-02-24T10:35:29.634Z,3.05
2017-02-24T10:36:29.225Z,2.99
2017-02-24T10:37:29.603Z,2.95
2017-02-24T10:38:29.604Z,3.11
2017-02-24T10:39:29.198Z,3.08
2017-02-24T10:40:29.568Z,3.16
2017-02-24T10:41:29.542Z,3.21
2017-02-24T10:42:29.546Z,3.2
2017-02-24T10:43:29.522Z,3.24
2017-02-24T10:44:29.501Z,3.2
2017-02-24T10:45:29.488Z,3.17
2017-02-24T10:46:29.477Z,3.14
2017-02-24T10:47:29.452Z,3.03
2017-02-24T10:48:29.443Z,3.11
2017-02-24T10:49:29.422Z,3.02
2017-02-24T10:50:29.437Z,3.08
2017-02-24T10:51:29.402Z,3.02
2017-02-24T10:52:29.380Z,2.99
2017-02-24T10:53:29.368Z,2.96
2017-02-24T10:54:29.356Z,2.91
2017-02-24T10:55:28.942Z,2.84
2017-02-24T10:56:28.925Z,2.98
2017-02-24T10:57:29.305Z,2.99
2017-02-24T10:58:29.290Z,3.03
2017-02-24T10:59:29.289Z,3.13
2017-02-24T11:00:29.273Z,3.08
2017-02-24T11:01:29.254Z,3.14
2017-02-24T11:02:29.246Z,3.16
2017-02-24T11:03:29.228Z,3.21
2017-02-24T11:04:29.219Z,3.32
2017-02-24T11:05:29.186Z,3.49
2017-02-24T11:06:28.784Z,3.51
2017-02-24T11:07:29.157Z,3.76
2017-02-24T11:08:28.744Z,3.79
2017-02-24T11:09:28.744Z,3.82
2017-02-24T11:10:28.733Z,3.9
2017-02-24T11:11:29.105Z,4
2017-02-24T11:12:29.084Z,4.17
2017-02-24T11:13:29.074Z,4.15
2017-02-24T11:14:28.655Z,4.3
2017-02-24T11:15:29.045Z,4.29
2017-02-24T11:16:29.037Z,4.3
2017-02-24T11:17:29.013Z,4.39
2017-02-24T11:18:29.030Z,4.36
2017-02-24T11:19:28.984Z,4.33
2017-02-24T11:20:28.589Z,4.36
2017-02-24T11:21:28.954Z,4.4
2017-02-24T11:22:28.943Z,4.47
2017-02-24T11:23:28.933Z,4.46
2017-02-24T11:24:28.910Z,4.47
2017-02-24T11:25:28.900Z,4.39
2017-02-24T11:26:28.892Z,4.4
2017-02-24T11:27:28.881Z,4.5
2017-02-24T11:28:28.071Z,4.5
2017-02-24T11:29:28.845Z,4.61
2017-02-24T11:30:28.837Z,4.61
2017-02-24T11:31:28.819Z,4.65
2017-02-24T11:32:28.829Z,4.69
2017-02-24T11:33:28.791Z,4.74
2017-02-24T11:34:28.770Z,4.79
2017-02-24T11:35:28.361Z,4.76
2017-02-24T11:36:28.744Z,4.79
2017-02-24T11:37:28.741Z,4.88
2017-02-24T11:38:28.732Z,4.91
2017-02-24T11:39:28.309Z,4.97
2017-02-24T11:40:28.711Z,4.94
2017-02-24T11:41:28.687Z,5.02
2017-02-24T11:42:28.676Z,5.08
2017-02-24T11:43:28.260Z,5.08
2017-02-24T11:44:28.637Z,5.03
2017-02-24T11:45:28.624Z,4.98
2017-02-24T11:46:28.613Z,4.75
2017-02-24T11:47:28.604Z,4.68
2017-02-24T11:48:28.580Z,4.65
2017-02-24T11:49:28.184Z,4.51
2017-02-24T11:50:28.556Z,4.51
2017-02-24T11:51:28.539Z,4.47
2017-02-24T11:52:28.543Z,4.26
2017-02-24T11:53:28.522Z,4.15
2017-02-24T11:54:28.101Z,4.15
2017-02-24T11:55:28.091Z,4.08
2017-02-24T11:56:28.483Z,3.96
2017-02-24T11:57:28.483Z,4
2017-02-24T11:58:28.458Z,3.92
2017-02-24T11:59:28.443Z,4
2017-02-24T12:00:28.418Z,3.99
2017-02-24T12:01:28.409Z,3.94
2017-02-24T12:02:28.387Z,3.86
2017-02-24T12:03:28.386Z,3.86
2017-02-24T12:04:27.964Z,3.79
2017-02-24T12:05:28.345Z,3.76
2017-02-24T12:06:28.353Z,3.67
2017-02-24T12:07:27.928Z,3.67
2017-02-24T12:08:28.305Z,3.61
2017-02-24T12:09:28.294Z,3.56
2017-02-24T12:10:28.277Z,3.49
2017-02-24T12:11:28.291Z,3.48
2017-02-24T12:12:28.268Z,3.51
2017-02-24T12:13:28.246Z,3.45
2017-02-24T12:14:28.226Z,3.3
2017-02-24T12:15:28.210Z,3.34
2017-02-24T12:16:28.196Z,3.21
2017-02-24T12:17:28.188Z,3.34
2017-02-24T12:18:28.167Z,3.3
2017-02-24T12:19:27.800Z,3.45
2017-02-24T12:20:28.131Z,3.49
2017-02-24T12:21:28.123Z,3.42
2017-02-24T12:22:27.707Z,3.57
2017-02-24T12:23:28.089Z,3.56
2017-02-24T12:24:28.077Z,3.53
2017-02-24T12:25:28.061Z,3.48
2017-02-24T12:26:28.068Z,3.51
2017-02-24T12:27:28.052Z,3.53
2017-02-24T12:28:28.023Z,3.51
2017-02-24T12:29:28.019Z,3.45
2017-02-24T12:30:27.992Z,3.46
2017-02-24T12:31:27.987Z,3.46
2017-02-24T12:32:27.959Z,3.46
2017-02-24T12:33:27.997Z,3.39
2017-02-24T12:34:27.533Z,3.35
2017-02-24T12:35:28.181Z,3.32
2017-02-24T12:36:28.015Z,3.19
2017-02-24T12:37:27.564Z,3.23
2017-02-24T12:38:28.175Z,3.16
2017-02-24T12:39:28.143Z,3.17
2017-02-24T12:40:27.935Z,3.19
2017-02-24T12:41:27.965Z,3.2
2017-02-24T12:42:27.972Z,3.2
2017-02-24T12:43:27.639Z,3.24
2017-02-24T12:44:27.495Z,3.17
2017-02-24T12:45:28.001Z,3.23
2017-02-24T12:46:27.953Z,3.19
2017-02-24T12:47:28.094Z,3.16
2017-02-24T12:48:27.746Z,3.21
2017-02-24T12:49:28.042Z,3.19
2017-02-24T12:50:27.863Z,3.21
2017-02-24T12:51:28.017Z,3.3
2017-02-24T12:52:27.044Z,3.46
2017-02-24T12:53:28.097Z,3.43
2017-02-24T12:54:28.100Z,3.48
2017-02-24T12:55:27.899Z,3.49
2017-02-24T12:56:28.069Z,3.46
2017-02-24T12:57:28.027Z,3.46
2017-02-24T12:58:27.061Z,3.54
2017-02-24T12:59:27.486Z,3.57
2017-02-24T13:00:27.913Z,3.64
2017-02-24T13:01:27.983Z,3.66
2017-02-24T13:02:27.769Z,3.69
2017-02-24T13:03:27.333Z,3.64
2017-02-24T13:04:27.846Z,3.72
2017-02-24T13:05:27.938Z,3.66
2017-02-24T13:06:27.698Z,3.63
2017-02-24T13:07:27.452Z,3.67
2017-02-24T13:08:27.307Z,3.71
2017-02-24T13:09:28.016Z,3.72
2017-02-24T13:10:27.503Z,3.72
2017-02-24T13:11:27.425Z,3.66
2017-02-24T13:12:28.000Z,3.76
2017-02-24T13:13:27.431Z,3.63
2017-02-24T13:14:27.979Z,3.6
2017-02-24T13:15:27.886Z,3.61
2017-02-24T13:16:27.329Z,3.43
2017-02-24T13:17:27.318Z,3.39
2017-02-24T13:18:27.301Z,3.27
2017-02-24T13:19:27.275Z,3.23
2017-02-24T13:20:27.266Z,3.2
2017-02-24T13:21:27.244Z,3.11
2017-02-24T13:22:26.840Z,3.08